sensor_id;sensor_type;location;lat;lon;timestamp;P1;durP1;ratioP1;P2;durP2;ratioP2
34832;SDS011;55941;50.800;4.342;2022-12-18T00:00:43;41.80;;;22.00;;
34832;SDS011;55941;50.800;4.342;2022-12-18T00:03:14;43.90;;;21.70;;
34832;SDS011;55941;50.800;4.342;2022-12-18T00:05:49;42.08;;;21.95;;
34832;SDS011;55941;50.800;4.342;2022-12-18T00:08:16;47.92;;;22.45;;
34832;SDS011;55941;50.800;4.342;2022-12-18T00:10:42;41.78;;;21.63;;
34832;SDS011;55941;50.800;4.342;2022-12-18T00:13:08;41.17;;;21.73;;
34832;SDS011;55941;50.800;4.342;2022-12-18T00:15:34;43.67;;;21.42;;
34832;SDS011;55941;50.800;4.342;2022-12-18T00:18:01;43.78;;;21.67;;
34832;SDS011;55941;50.800;4.342;2022-12-18T00:20:27;43.97;;;22.05;;
34832;SDS011;55941;50.800;4.342;2022-12-18T00:22:53;38.00;;;20.15;;
34832;SDS011;55941;50.800;4.342;2022-12-18T00:25:18;42.08;;;20.83;;
34832;SDS011;55941;50.800;4.342;2022-12-18T00:27:44;39.60;;;20.33;;
34832;SDS011;55941;50.800;4.342;2022-12-18T00:30:11;43.53;;;20.67;;
34832;SDS011;55941;50.800;4.342;2022-12-18T00:32:37;40.92;;;19.98;;
34832;SDS011;55941;50.800;4.342;2022-12-18T00:35:04;39.20;;;20.80;;
34832;SDS011;55941;50.800;4.342;2022-12-18T00:37:31;42.83;;;21.70;;
34832;SDS011;55941;50.800;4.342;2022-12-18T00:39:58;41.47;;;20.73;;
34832;SDS011;55941;50.800;4.342;2022-12-18T00:42:24;38.78;;;20.15;;
34832;SDS011;55941;50.800;4.342;2022-12-18T00:45:09;42.65;;;20.48;;
34832;SDS011;55941;50.800;4.342;2022-12-18T00:47:35;39.97;;;20.85;;
34832;SDS011;55941;50.800;4.342;2022-12-18T00:50:01;40.13;;;21.77;;
34832;SDS011;55941;50.800;4.342;2022-12-18T00:52:27;48.55;;;22.75;;
34832;SDS011;55941;50.800;4.342;2022-12-18T00:54:55;40.08;;;19.65;;
34832;SDS011;55941;50.800;4.342;2022-12-18T00:57:21;40.75;;;20.45;;
34832;SDS011;55941;50.800;4.342;2022-12-18T00:59:47;40.70;;;21.02;;
34832;SDS011;55941;50.800;4.342;2022-12-18T01:02:13;45.53;;;21.75;;
34832;SDS011;55941;50.800;4.342;2022-12-18T01:04:39;32.33;;;17.95;;
34832;SDS011;55941;50.800;4.342;2022-12-18T01:07:05;38.53;;;19.38;;
34832;SDS011;55941;50.800;4.342;2022-12-18T01:09:31;37.50;;;19.35;;
34832;SDS011;55941;50.800;4.342;2022-12-18T01:11:58;44.25;;;19.70;;
34832;SDS011;55941;50.800;4.342;2022-12-18T01:14:24;40.25;;;20.75;;
34832;SDS011;55941;50.800;4.342;2022-12-18T01:16:50;37.70;;;19.75;;
34832;SDS011;55941;50.800;4.342;2022-12-18T01:19:15;35.47;;;19.13;;
34832;SDS011;55941;50.800;4.342;2022-12-18T01:21:41;38.67;;;19.52;;
34832;SDS011;55941;50.800;4.342;2022-12-18T01:24:10;40.58;;;20.65;;
34832;SDS011;55941;50.800;4.342;2022-12-18T01:26:37;37.88;;;19.30;;
34832;SDS011;55941;50.800;4.342;2022-12-18T01:29:03;35.00;;;18.65;;
34832;SDS011;55941;50.800;4.342;2022-12-18T01:31:30;35.88;;;18.23;;
34832;SDS011;55941;50.800;4.342;2022-12-18T01:33:57;31.17;;;18.50;;
34832;SDS011;55941;50.800;4.342;2022-12-18T01:36:26;32.35;;;17.42;;
34832;SDS011;55941;50.800;4.342;2022-12-18T01:38:54;33.10;;;16.67;;
34832;SDS011;55941;50.800;4.342;2022-12-18T01:41:25;28.65;;;15.95;;
34832;SDS011;55941;50.800;4.342;2022-12-18T01:47:15;30.35;;;15.52;;
34832;SDS011;55941;50.800;4.342;2022-12-18T01:49:47;31.23;;;16.15;;
34832;SDS011;55941;50.800;4.342;2022-12-18T01:52:13;31.33;;;15.10;;
34832;SDS011;55941;50.800;4.342;2022-12-18T01:54:39;26.60;;;14.20;;
34832;SDS011;55941;50.800;4.342;2022-12-18T01:57:06;27.05;;;13.75;;
34832;SDS011;55941;50.800;4.342;2022-12-18T01:59:32;27.00;;;13.98;;
34832;SDS011;55941;50.800;4.342;2022-12-18T02:02:00;30.98;;;13.75;;
34832;SDS011;55941;50.800;4.342;2022-12-18T02:04:27;27.80;;;13.15;;
34832;SDS011;55941;50.800;4.342;2022-12-18T02:09:56;20.47;;;9.47;;
34832;SDS011;55941;50.800;4.342;2022-12-18T02:12:37;26.90;;;12.75;;
34832;SDS011;55941;50.800;4.342;2022-12-18T02:20:12;26.80;;;12.23;;
34832;SDS011;55941;50.800;4.342;2022-12-18T02:28:10;23.42;;;10.50;;
34832;SDS011;55941;50.800;4.342;2022-12-18T02:30:40;18.77;;;10.48;;
34832;SDS011;55941;50.800;4.342;2022-12-18T02:33:07;20.75;;;11.65;;
34832;SDS011;55941;50.800;4.342;2022-12-18T02:35:37;20.23;;;10.80;;
34832;SDS011;55941;50.800;4.342;2022-12-18T02:38:05;21.15;;;11.43;;
34832;SDS011;55941;50.800;4.342;2022-12-18T02:40:31;21.55;;;11.70;;
34832;SDS011;55941;50.800;4.342;2022-12-18T02:43:08;20.73;;;10.32;;
34832;SDS011;55941;50.800;4.342;2022-12-18T02:45:36;20.73;;;10.70;;
34832;SDS011;55941;50.800;4.342;2022-12-18T02:48:16;17.92;;;10.52;;
34832;SDS011;55941;50.800;4.342;2022-12-18T02:50:45;22.30;;;10.65;;
34832;SDS011;55941;50.800;4.342;2022-12-18T02:53:30;20.85;;;10.52;;
34832;SDS011;55941;50.800;4.342;2022-12-18T02:56:29;18.88;;;10.85;;
34832;SDS011;55941;50.800;4.342;2022-12-18T02:59:13;22.83;;;10.93;;
34832;SDS011;55941;50.800;4.342;2022-12-18T03:04:39;23.25;;;11.80;;
34832;SDS011;55941;50.800;4.342;2022-12-18T03:09:43;23.20;;;10.80;;
34832;SDS011;55941;50.800;4.342;2022-12-18T03:15:02;22.35;;;11.25;;
34832;SDS011;55941;50.800;4.342;2022-12-18T03:17:36;23.73;;;12.05;;
34832;SDS011;55941;50.800;4.342;2022-12-18T03:20:12;23.90;;;12.07;;
34832;SDS011;55941;50.800;4.342;2022-12-18T03:22:40;23.90;;;11.77;;
34832;SDS011;55941;50.800;4.342;2022-12-18T03:25:09;24.83;;;12.13;;
34832;SDS011;55941;50.800;4.342;2022-12-18T03:27:39;24.02;;;12.32;;
34832;SDS011;55941;50.800;4.342;2022-12-18T03:35:31;21.42;;;11.45;;
34832;SDS011;55941;50.800;4.342;2022-12-18T03:38:04;29.20;;;12.52;;
34832;SDS011;55941;50.800;4.342;2022-12-18T03:40:35;25.70;;;12.07;;
34832;SDS011;55941;50.800;4.342;2022-12-18T03:43:18;24.23;;;11.90;;
34832;SDS011;55941;50.800;4.342;2022-12-18T03:45:55;21.60;;;11.73;;
34832;SDS011;55941;50.800;4.342;2022-12-18T03:48:38;23.00;;;12.00;;
34832;SDS011;55941;50.800;4.342;2022-12-18T03:51:52;22.33;;;11.45;;
34832;SDS011;55941;50.800;4.342;2022-12-18T03:54:06;26.52;;;12.32;;
34832;SDS011;55941;50.800;4.342;2022-12-18T03:56:37;23.70;;;11.88;;
34832;SDS011;55941;50.800;4.342;2022-12-18T03:59:07;25.38;;;12.48;;
34832;SDS011;55941;50.800;4.342;2022-12-18T04:01:37;23.30;;;12.32;;
34832;SDS011;55941;50.800;4.342;2022-12-18T04:04:05;24.13;;;12.57;;
34832;SDS011;55941;50.800;4.342;2022-12-18T04:06:33;23.05;;;11.13;;
34832;SDS011;55941;50.800;4.342;2022-12-18T04:09:00;24.13;;;12.63;;
34832;SDS011;55941;50.800;4.342;2022-12-18T04:11:26;23.30;;;12.13;;
34832;SDS011;55941;50.800;4.342;2022-12-18T04:13:56;20.92;;;12.18;;
34832;SDS011;55941;50.800;4.342;2022-12-18T04:16:26;23.85;;;11.50;;
34832;SDS011;55941;50.800;4.342;2022-12-18T04:18:53;23.08;;;11.52;;
34832;SDS011;55941;50.800;4.342;2022-12-18T04:21:19;24.50;;;11.07;;
34832;SDS011;55941;50.800;4.342;2022-12-18T04:23:45;21.50;;;11.00;;
34832;SDS011;55941;50.800;4.342;2022-12-18T04:26:11;24.60;;;12.05;;
34832;SDS011;55941;50.800;4.342;2022-12-18T04:28:38;20.60;;;11.43;;
34832;SDS011;55941;50.800;4.342;2022-12-18T04:31:04;19.95;;;10.98;;
34832;SDS011;55941;50.800;4.342;2022-12-18T04:33:30;22.23;;;11.30;;
34832;SDS011;55941;50.800;4.342;2022-12-18T04:35:56;22.08;;;10.77;;
34832;SDS011;55941;50.800;4.342;2022-12-18T04:38:23;22.45;;;11.57;;
34832;SDS011;55941;50.800;4.342;2022-12-18T04:40:48;23.52;;;11.90;;
34832;SDS011;55941;50.800;4.342;2022-12-18T04:43:14;20.83;;;10.60;;
34832;SDS011;55941;50.800;4.342;2022-12-18T04:45:40;24.25;;;10.80;;
34832;SDS011;55941;50.800;4.342;2022-12-18T04:48:06;23.02;;;11.52;;
34832;SDS011;55941;50.800;4.342;2022-12-18T04:50:31;21.50;;;11.43;;
34832;SDS011;55941;50.800;4.342;2022-12-18T04:52:57;25.20;;;10.93;;
34832;SDS011;55941;50.800;4.342;2022-12-18T04:55:23;30.40;;;11.50;;
34832;SDS011;55941;50.800;4.342;2022-12-18T04:57:49;23.27;;;11.50;;
34832;SDS011;55941;50.800;4.342;2022-12-18T05:00:16;22.52;;;10.80;;
34832;SDS011;55941;50.800;4.342;2022-12-18T05:02:42;21.70;;;11.10;;
34832;SDS011;55941;50.800;4.342;2022-12-18T05:05:08;21.92;;;11.48;;
34832;SDS011;55941;50.800;4.342;2022-12-18T05:07:34;20.02;;;10.50;;
34832;SDS011;55941;50.800;4.342;2022-12-18T05:10:00;22.13;;;10.70;;
34832;SDS011;55941;50.800;4.342;2022-12-18T05:12:26;21.70;;;10.85;;
34832;SDS011;55941;50.800;4.342;2022-12-18T05:14:52;20.23;;;9.93;;
34832;SDS011;55941;50.800;4.342;2022-12-18T05:17:19;21.20;;;10.65;;
34832;SDS011;55941;50.800;4.342;2022-12-18T05:19:45;23.45;;;10.80;;
34832;SDS011;55941;50.800;4.342;2022-12-18T05:22:12;22.30;;;10.32;;
34832;SDS011;55941;50.800;4.342;2022-12-18T05:24:38;25.60;;;11.20;;
34832;SDS011;55941;50.800;4.342;2022-12-18T05:27:04;20.92;;;10.93;;
34832;SDS011;55941;50.800;4.342;2022-12-18T05:29:30;20.65;;;11.15;;
34832;SDS011;55941;50.800;4.342;2022-12-18T05:31:56;26.27;;;11.43;;
34832;SDS011;55941;50.800;4.342;2022-12-18T05:34:22;24.52;;;11.90;;
34832;SDS011;55941;50.800;4.342;2022-12-18T05:36:47;22.85;;;11.45;;
34832;SDS011;55941;50.800;4.342;2022-12-18T05:39:13;24.15;;;12.02;;
34832;SDS011;55941;50.800;4.342;2022-12-18T05:41:39;19.45;;;10.18;;
34832;SDS011;55941;50.800;4.342;2022-12-18T05:44:05;23.35;;;10.57;;
34832;SDS011;55941;50.800;4.342;2022-12-18T05:46:31;28.73;;;11.55;;
34832;SDS011;55941;50.800;4.342;2022-12-18T05:49:00;19.60;;;10.52;;
34832;SDS011;55941;50.800;4.342;2022-12-18T05:51:26;18.75;;;9.43;;
34832;SDS011;55941;50.800;4.342;2022-12-18T05:53:53;20.90;;;10.88;;
34832;SDS011;55941;50.800;4.342;2022-12-18T05:56:19;20.48;;;10.23;;
34832;SDS011;55941;50.800;4.342;2022-12-18T05:58:47;19.05;;;9.98;;
34832;SDS011;55941;50.800;4.342;2022-12-18T06:01:17;20.80;;;9.35;;
34832;SDS011;55941;50.800;4.342;2022-12-18T06:03:46;17.23;;;9.65;;
34832;SDS011;55941;50.800;4.342;2022-12-18T06:06:16;19.60;;;9.18;;
34832;SDS011;55941;50.800;4.342;2022-12-18T06:08:45;20.05;;;9.43;;
34832;SDS011;55941;50.800;4.342;2022-12-18T06:11:11;20.50;;;10.02;;
34832;SDS011;55941;50.800;4.342;2022-12-18T06:13:37;20.90;;;9.43;;
34832;SDS011;55941;50.800;4.342;2022-12-18T06:16:04;15.65;;;9.52;;
34832;SDS011;55941;50.800;4.342;2022-12-18T06:18:31;17.70;;;9.68;;
34832;SDS011;55941;50.800;4.342;2022-12-18T06:20:57;19.52;;;9.68;;
34832;SDS011;55941;50.800;4.342;2022-12-18T06:23:24;25.20;;;9.38;;
34832;SDS011;55941;50.800;4.342;2022-12-18T06:25:50;19.35;;;9.55;;
34832;SDS011;55941;50.800;4.342;2022-12-18T06:28:18;19.77;;;8.80;;
34832;SDS011;55941;50.800;4.342;2022-12-18T06:30:44;18.48;;;9.43;;
34832;SDS011;55941;50.800;4.342;2022-12-18T06:33:11;17.58;;;8.90;;
34832;SDS011;55941;50.800;4.342;2022-12-18T06:35:37;17.27;;;9.30;;
34832;SDS011;55941;50.800;4.342;2022-12-18T06:38:04;19.55;;;9.05;;
34832;SDS011;55941;50.800;4.342;2022-12-18T06:40:30;17.67;;;9.35;;
34832;SDS011;55941;50.800;4.342;2022-12-18T06:42:57;18.58;;;8.88;;
34832;SDS011;55941;50.800;4.342;2022-12-18T06:45:23;18.25;;;9.52;;
34832;SDS011;55941;50.800;4.342;2022-12-18T06:47:50;18.88;;;9.60;;
34832;SDS011;55941;50.800;4.342;2022-12-18T06:50:16;18.15;;;9.75;;
34832;SDS011;55941;50.800;4.342;2022-12-18T06:52:43;21.15;;;9.60;;
34832;SDS011;55941;50.800;4.342;2022-12-18T06:55:10;18.67;;;9.25;;
34832;SDS011;55941;50.800;4.342;2022-12-18T06:57:37;21.45;;;9.38;;
34832;SDS011;55941;50.800;4.342;2022-12-18T07:00:04;20.70;;;9.75;;
34832;SDS011;55941;50.800;4.342;2022-12-18T07:02:31;19.75;;;9.32;;
34832;SDS011;55941;50.800;4.342;2022-12-18T07:05:00;15.35;;;8.63;;
34832;SDS011;55941;50.800;4.342;2022-12-18T07:07:27;17.63;;;9.02;;
34832;SDS011;55941;50.800;4.342;2022-12-18T07:09:56;20.73;;;9.38;;
34832;SDS011;55941;50.800;4.342;2022-12-18T07:12:22;16.98;;;8.82;;
34832;SDS011;55941;50.800;4.342;2022-12-18T07:14:48;17.80;;;9.43;;
34832;SDS011;55941;50.800;4.342;2022-12-18T07:17:15;16.88;;;9.70;;
34832;SDS011;55941;50.800;4.342;2022-12-18T07:19:41;17.55;;;9.18;;
34832;SDS011;55941;50.800;4.342;2022-12-18T07:22:07;14.95;;;9.18;;
34832;SDS011;55941;50.800;4.342;2022-12-18T07:24:33;23.50;;;9.00;;
34832;SDS011;55941;50.800;4.342;2022-12-18T07:27:00;17.52;;;9.95;;
34832;SDS011;55941;50.800;4.342;2022-12-18T07:29:26;15.40;;;9.68;;
34832;SDS011;55941;50.800;4.342;2022-12-18T07:31:52;20.55;;;9.68;;
34832;SDS011;55941;50.800;4.342;2022-12-18T07:34:18;19.45;;;10.15;;
34832;SDS011;55941;50.800;4.342;2022-12-18T07:36:44;20.75;;;10.60;;
34832;SDS011;55941;50.800;4.342;2022-12-18T07:39:13;17.92;;;10.15;;
34832;SDS011;55941;50.800;4.342;2022-12-18T07:41:39;20.38;;;10.60;;
34832;SDS011;55941;50.800;4.342;2022-12-18T07:44:12;24.80;;;13.38;;
34832;SDS011;55941;50.800;4.342;2022-12-18T07:46:38;21.77;;;11.75;;
34832;SDS011;55941;50.800;4.342;2022-12-18T07:49:04;22.00;;;11.75;;
34832;SDS011;55941;50.800;4.342;2022-12-18T07:51:30;15.88;;;9.98;;
34832;SDS011;55941;50.800;4.342;2022-12-18T07:53:56;17.30;;;9.25;;
34832;SDS011;55941;50.800;4.342;2022-12-18T07:56:22;19.13;;;10.98;;
34832;SDS011;55941;50.800;4.342;2022-12-18T07:58:48;25.00;;;12.00;;
34832;SDS011;55941;50.800;4.342;2022-12-18T08:01:13;16.95;;;10.15;;
34832;SDS011;55941;50.800;4.342;2022-12-18T08:03:39;17.15;;;9.05;;
34832;SDS011;55941;50.800;4.342;2022-12-18T08:06:07;20.85;;;9.38;;
34832;SDS011;55941;50.800;4.342;2022-12-18T08:08:35;21.48;;;10.90;;
34832;SDS011;55941;50.800;4.342;2022-12-18T08:11:02;14.43;;;8.73;;
34832;SDS011;55941;50.800;4.342;2022-12-18T08:13:28;16.70;;;9.63;;
34832;SDS011;55941;50.800;4.342;2022-12-18T08:16:01;18.42;;;9.60;;
34832;SDS011;55941;50.800;4.342;2022-12-18T08:18:29;19.73;;;9.15;;
34832;SDS011;55941;50.800;4.342;2022-12-18T08:20:57;15.68;;;9.23;;
34832;SDS011;55941;50.800;4.342;2022-12-18T08:23:23;17.40;;;9.57;;
34832;SDS011;55941;50.800;4.342;2022-12-18T08:25:52;18.73;;;10.10;;
34832;SDS011;55941;50.800;4.342;2022-12-18T08:28:40;16.48;;;9.80;;
34832;SDS011;55941;50.800;4.342;2022-12-18T08:31:15;19.88;;;10.18;;
34832;SDS011;55941;50.800;4.342;2022-12-18T08:33:41;15.57;;;9.35;;
34832;SDS011;55941;50.800;4.342;2022-12-18T08:36:08;19.95;;;10.80;;
34832;SDS011;55941;50.800;4.342;2022-12-18T08:38:35;17.17;;;9.90;;
34832;SDS011;55941;50.800;4.342;2022-12-18T08:41:02;19.75;;;10.75;;
34832;SDS011;55941;50.800;4.342;2022-12-18T08:43:32;16.17;;;9.57;;
34832;SDS011;55941;50.800;4.342;2022-12-18T08:46:17;17.35;;;9.05;;
34832;SDS011;55941;50.800;4.342;2022-12-18T08:48:44;17.05;;;9.93;;
34832;SDS011;55941;50.800;4.342;2022-12-18T08:51:10;18.38;;;10.05;;
34832;SDS011;55941;50.800;4.342;2022-12-18T08:53:37;22.33;;;10.07;;
34832;SDS011;55941;50.800;4.342;2022-12-18T08:56:03;18.70;;;10.55;;
34832;SDS011;55941;50.800;4.342;2022-12-18T08:58:30;22.52;;;10.57;;
34832;SDS011;55941;50.800;4.342;2022-12-18T09:00:59;17.58;;;9.77;;
34832;SDS011;55941;50.800;4.342;2022-12-18T09:03:27;19.63;;;10.55;;
34832;SDS011;55941;50.800;4.342;2022-12-18T09:05:53;16.05;;;10.02;;
34832;SDS011;55941;50.800;4.342;2022-12-18T09:08:19;17.48;;;10.52;;
34832;SDS011;55941;50.800;4.342;2022-12-18T09:10:47;19.23;;;10.93;;
34832;SDS011;55941;50.800;4.342;2022-12-18T09:13:15;16.17;;;10.18;;
34832;SDS011;55941;50.800;4.342;2022-12-18T09:15:45;18.45;;;11.23;;
34832;SDS011;55941;50.800;4.342;2022-12-18T09:18:13;14.60;;;8.38;;
34832;SDS011;55941;50.800;4.342;2022-12-18T09:20:40;17.95;;;10.55;;
34832;SDS011;55941;50.800;4.342;2022-12-18T09:23:06;24.80;;;12.75;;
34832;SDS011;55941;50.800;4.342;2022-12-18T09:25:33;42.97;;;18.98;;
34832;SDS011;55941;50.800;4.342;2022-12-18T09:28:04;35.20;;;15.95;;
34832;SDS011;55941;50.800;4.342;2022-12-18T09:30:42;45.42;;;18.75;;
34832;SDS011;55941;50.800;4.342;2022-12-18T09:33:09;36.83;;;18.10;;
34832;SDS011;55941;50.800;4.342;2022-12-18T09:35:36;37.53;;;17.27;;
34832;SDS011;55941;50.800;4.342;2022-12-18T09:38:03;27.60;;;15.38;;
34832;SDS011;55941;50.800;4.342;2022-12-18T09:40:34;24.77;;;13.60;;
34832;SDS011;55941;50.800;4.342;2022-12-18T09:43:22;27.98;;;13.35;;
34832;SDS011;55941;50.800;4.342;2022-12-18T09:45:53;23.65;;;13.82;;
34832;SDS011;55941;50.800;4.342;2022-12-18T09:50:57;24.52;;;14.30;;
34832;SDS011;55941;50.800;4.342;2022-12-18T09:53:28;24.73;;;14.20;;
34832;SDS011;55941;50.800;4.342;2022-12-18T09:55:59;23.55;;;14.57;;
34832;SDS011;55941;50.800;4.342;2022-12-18T09:58:41;26.13;;;14.88;;
34832;SDS011;55941;50.800;4.342;2022-12-18T10:01:14;27.23;;;14.20;;
34832;SDS011;55941;50.800;4.342;2022-12-18T10:03:47;24.52;;;14.20;;
34832;SDS011;55941;50.800;4.342;2022-12-18T10:09:10;26.52;;;14.23;;
34832;SDS011;55941;50.800;4.342;2022-12-18T10:14:41;22.17;;;12.85;;
34832;SDS011;55941;50.800;4.342;2022-12-18T10:20:17;25.83;;;13.35;;
34832;SDS011;55941;50.800;4.342;2022-12-18T10:26:10;20.40;;;12.40;;
34832;SDS011;55941;50.800;4.342;2022-12-18T10:28:38;23.13;;;14.20;;
34832;SDS011;55941;50.800;4.342;2022-12-18T10:33:46;25.83;;;13.23;;
34832;SDS011;55941;50.800;4.342;2022-12-18T10:36:12;30.90;;;14.95;;
34832;SDS011;55941;50.800;4.342;2022-12-18T10:38:51;27.10;;;14.38;;
34832;SDS011;55941;50.800;4.342;2022-12-18T10:43:44;21.67;;;13.30;;
34832;SDS011;55941;50.800;4.342;2022-12-18T10:48:39;20.52;;;13.10;;
34832;SDS011;55941;50.800;4.342;2022-12-18T10:51:06;26.17;;;13.35;;
34832;SDS011;55941;50.800;4.342;2022-12-18T10:53:34;23.75;;;13.38;;
34832;SDS011;55941;50.800;4.342;2022-12-18T10:56:02;22.45;;;12.48;;
34832;SDS011;55941;50.800;4.342;2022-12-18T10:58:34;23.13;;;13.15;;
34832;SDS011;55941;50.800;4.342;2022-12-18T11:03:36;25.73;;;13.20;;
34832;SDS011;55941;50.800;4.342;2022-12-18T11:06:06;25.23;;;13.95;;
34832;SDS011;55941;50.800;4.342;2022-12-18T11:08:39;25.63;;;14.20;;
34832;SDS011;55941;50.800;4.342;2022-12-18T11:11:20;24.23;;;13.73;;
34832;SDS011;55941;50.800;4.342;2022-12-18T11:13:50;27.85;;;14.25;;
34832;SDS011;55941;50.800;4.342;2022-12-18T11:16:20;24.08;;;13.48;;
34832;SDS011;55941;50.800;4.342;2022-12-18T11:18:47;24.25;;;13.20;;
34832;SDS011;55941;50.800;4.342;2022-12-18T11:21:13;25.55;;;14.25;;
34832;SDS011;55941;50.800;4.342;2022-12-18T11:23:52;25.20;;;14.35;;
34832;SDS011;55941;50.800;4.342;2022-12-18T11:26:19;23.92;;;14.48;;
34832;SDS011;55941;50.800;4.342;2022-12-18T11:28:53;25.90;;;14.68;;
34832;SDS011;55941;50.800;4.342;2022-12-18T11:31:40;27.98;;;15.57;;
34832;SDS011;55941;50.800;4.342;2022-12-18T11:34:14;22.73;;;13.88;;
34832;SDS011;55941;50.800;4.342;2022-12-18T11:36:55;24.70;;;14.18;;
34832;SDS011;55941;50.800;4.342;2022-12-18T11:39:35;26.80;;;15.18;;
34832;SDS011;55941;50.800;4.342;2022-12-18T11:42:18;25.05;;;14.98;;
34832;SDS011;55941;50.800;4.342;2022-12-18T11:44:53;28.90;;;14.75;;
34832;SDS011;55941;50.800;4.342;2022-12-18T11:53:02;27.48;;;15.07;;
34832;SDS011;55941;50.800;4.342;2022-12-18T12:09:27;29.02;;;15.70;;
34832;SDS011;55941;50.800;4.342;2022-12-18T12:14:46;28.20;;;15.57;;
34832;SDS011;55941;50.800;4.342;2022-12-18T12:25:52;29.23;;;15.25;;
34832;SDS011;55941;50.800;4.342;2022-12-18T12:39:36;32.10;;;16.88;;
34832;SDS011;55941;50.800;4.342;2022-12-18T12:44:53;31.33;;;15.55;;
34832;SDS011;55941;50.800;4.342;2022-12-18T12:49:56;30.58;;;15.35;;
34832;SDS011;55941;50.800;4.342;2022-12-18T12:52:28;30.90;;;16.52;;
34832;SDS011;55941;50.800;4.342;2022-12-18T12:55:01;46.40;;;17.52;;
34832;SDS011;55941;50.800;4.342;2022-12-18T12:57:39;30.20;;;16.67;;
34832;SDS011;55941;50.800;4.342;2022-12-18T13:00:13;32.50;;;17.88;;
34832;SDS011;55941;50.800;4.342;2022-12-18T13:08:10;33.50;;;17.17;;
34832;SDS011;55941;50.800;4.342;2022-12-18T13:10:50;31.67;;;18.42;;
34832;SDS011;55941;50.800;4.342;2022-12-18T13:13:53;33.90;;;19.15;;
34832;SDS011;55941;50.800;4.342;2022-12-18T13:16:22;34.53;;;18.70;;
34832;SDS011;55941;50.800;4.342;2022-12-18T13:18:50;37.60;;;20.52;;
34832;SDS011;55941;50.800;4.342;2022-12-18T13:21:21;36.38;;;20.33;;
34832;SDS011;55941;50.800;4.342;2022-12-18T13:23:52;34.22;;;19.77;;
34832;SDS011;55941;50.800;4.342;2022-12-18T13:31:14;43.35;;;20.98;;
34832;SDS011;55941;50.800;4.342;2022-12-18T13:34:12;40.08;;;21.65;;
34832;SDS011;55941;50.800;4.342;2022-12-18T13:36:47;38.58;;;20.63;;
34832;SDS011;55941;50.800;4.342;2022-12-18T13:41:40;46.38;;;22.98;;
34832;SDS011;55941;50.800;4.342;2022-12-18T13:44:28;39.33;;;21.45;;
34832;SDS011;55941;50.800;4.342;2022-12-18T13:47:25;41.50;;;20.98;;
34832;SDS011;55941;50.800;4.342;2022-12-18T13:49:58;44.55;;;22.23;;
34832;SDS011;55941;50.800;4.342;2022-12-18T13:52:26;39.25;;;21.67;;
34832;SDS011;55941;50.800;4.342;2022-12-18T13:55:14;43.00;;;22.88;;
34832;SDS011;55941;50.800;4.342;2022-12-18T13:57:44;39.30;;;21.88;;
34832;SDS011;55941;50.800;4.342;2022-12-18T14:00:28;46.47;;;23.50;;
34832;SDS011;55941;50.800;4.342;2022-12-18T14:02:55;39.25;;;22.92;;
34832;SDS011;55941;50.800;4.342;2022-12-18T14:05:31;48.20;;;23.20;;
34832;SDS011;55941;50.800;4.342;2022-12-18T14:08:08;42.53;;;23.65;;
34832;SDS011;55941;50.800;4.342;2022-12-18T14:10:45;40.33;;;22.67;;
34832;SDS011;55941;50.800;4.342;2022-12-18T14:13:15;44.50;;;23.33;;
34832;SDS011;55941;50.800;4.342;2022-12-18T14:15:53;42.85;;;23.40;;
34832;SDS011;55941;50.800;4.342;2022-12-18T14:21:02;41.20;;;23.88;;
34832;SDS011;55941;50.800;4.342;2022-12-18T14:23:34;41.30;;;23.23;;
34832;SDS011;55941;50.800;4.342;2022-12-18T14:26:02;47.22;;;24.33;;
34832;SDS011;55941;50.800;4.342;2022-12-18T14:28:46;46.88;;;24.73;;
34832;SDS011;55941;50.800;4.342;2022-12-18T14:31:18;47.72;;;25.05;;
34832;SDS011;55941;50.800;4.342;2022-12-18T14:33:52;46.13;;;23.35;;
34832;SDS011;55941;50.800;4.342;2022-12-18T14:36:20;46.03;;;23.45;;
34832;SDS011;55941;50.800;4.342;2022-12-18T14:38:48;44.53;;;24.00;;
34832;SDS011;55941;50.800;4.342;2022-12-18T14:41:19;44.47;;;23.90;;
34832;SDS011;55941;50.800;4.342;2022-12-18T14:43:47;43.20;;;24.60;;
34832;SDS011;55941;50.800;4.342;2022-12-18T14:46:32;44.40;;;23.73;;
34832;SDS011;55941;50.800;4.342;2022-12-18T14:49:04;45.58;;;25.42;;
34832;SDS011;55941;50.800;4.342;2022-12-18T14:51:50;47.15;;;25.48;;
34832;SDS011;55941;50.800;4.342;2022-12-18T14:54:19;47.08;;;25.23;;
34832;SDS011;55941;50.800;4.342;2022-12-18T14:56:47;43.28;;;23.98;;
34832;SDS011;55941;50.800;4.342;2022-12-18T14:59:21;49.30;;;26.90;;
34832;SDS011;55941;50.800;4.342;2022-12-18T15:04:32;56.13;;;25.85;;
34832;SDS011;55941;50.800;4.342;2022-12-18T15:09:36;53.70;;;27.02;;
34832;SDS011;55941;50.800;4.342;2022-12-18T15:12:04;50.90;;;26.20;;
34832;SDS011;55941;50.800;4.342;2022-12-18T15:14:35;58.35;;;26.38;;
34832;SDS011;55941;50.800;4.342;2022-12-18T15:17:12;48.22;;;24.77;;
34832;SDS011;55941;50.800;4.342;2022-12-18T15:19:43;50.50;;;25.33;;
34832;SDS011;55941;50.800;4.342;2022-12-18T15:22:20;51.95;;;27.00;;
34832;SDS011;55941;50.800;4.342;2022-12-18T15:24:50;54.97;;;27.30;;
34832;SDS011;55941;50.800;4.342;2022-12-18T15:27:21;46.03;;;25.77;;
34832;SDS011;55941;50.800;4.342;2022-12-18T15:32:34;49.70;;;26.25;;
34832;SDS011;55941;50.800;4.342;2022-12-18T15:37:37;47.85;;;26.27;;
34832;SDS011;55941;50.800;4.342;2022-12-18T15:40:03;50.63;;;26.80;;
34832;SDS011;55941;50.800;4.342;2022-12-18T15:42:30;51.67;;;26.70;;
34832;SDS011;55941;50.800;4.342;2022-12-18T15:45:15;46.35;;;25.85;;
34832;SDS011;55941;50.800;4.342;2022-12-18T15:47:44;52.28;;;26.92;;
34832;SDS011;55941;50.800;4.342;2022-12-18T15:50:21;52.50;;;26.38;;
34832;SDS011;55941;50.800;4.342;2022-12-18T15:52:49;54.13;;;27.30;;
34832;SDS011;55941;50.800;4.342;2022-12-18T15:55:22;50.78;;;28.08;;
34832;SDS011;55941;50.800;4.342;2022-12-18T15:58:10;46.60;;;26.50;;
34832;SDS011;55941;50.800;4.342;2022-12-18T16:00:46;47.40;;;26.05;;
34832;SDS011;55941;50.800;4.342;2022-12-18T16:03:22;46.63;;;26.13;;
34832;SDS011;55941;50.800;4.342;2022-12-18T16:05:52;49.25;;;26.38;;
34832;SDS011;55941;50.800;4.342;2022-12-18T16:08:18;53.35;;;26.45;;
34832;SDS011;55941;50.800;4.342;2022-12-18T16:10:44;53.28;;;27.42;;
34832;SDS011;55941;50.800;4.342;2022-12-18T16:13:11;51.40;;;26.60;;
34832;SDS011;55941;50.800;4.342;2022-12-18T16:15:56;51.53;;;26.23;;
34832;SDS011;55941;50.800;4.342;2022-12-18T16:18:26;48.80;;;26.00;;
34832;SDS011;55941;50.800;4.342;2022-12-18T16:20:52;49.63;;;25.58;;
34832;SDS011;55941;50.800;4.342;2022-12-18T16:23:19;46.45;;;24.85;;
34832;SDS011;55941;50.800;4.342;2022-12-18T16:25:45;52.42;;;26.33;;
34832;SDS011;55941;50.800;4.342;2022-12-18T16:28:21;49.72;;;26.08;;
34832;SDS011;55941;50.800;4.342;2022-12-18T16:30:48;54.50;;;25.55;;
34832;SDS011;55941;50.800;4.342;2022-12-18T16:33:27;49.05;;;26.10;;
34832;SDS011;55941;50.800;4.342;2022-12-18T16:35:54;48.72;;;24.50;;
34832;SDS011;55941;50.800;4.342;2022-12-18T16:38:26;54.05;;;25.77;;
34832;SDS011;55941;50.800;4.342;2022-12-18T16:40:58;48.40;;;24.33;;
34832;SDS011;55941;50.800;4.342;2022-12-18T16:43:54;45.85;;;24.70;;
34832;SDS011;55941;50.800;4.342;2022-12-18T16:46:23;45.08;;;25.05;;
34832;SDS011;55941;50.800;4.342;2022-12-18T16:48:52;44.13;;;24.75;;